sensor_id;sensor_type;location;lat;lon;timestamp;P1;durP1;ratioP1;P2;durP2;ratioP2
9436;SDS011;4757;59.334;18.034;2022-10-10T00:01:50;3.23;;;1.17;;
9436;SDS011;4757;59.334;18.034;2022-10-10T00:07:55;1.70;;;1.10;;
9436;SDS011;4757;59.334;18.034;2022-10-10T00:10:23;3.10;;;1.27;;
9436;SDS011;4757;59.334;18.034;2022-10-10T00:12:54;2.00;;;1.37;;
9436;SDS011;4757;59.334;18.034;2022-10-10T00:15:22;3.37;;;1.37;;
9436;SDS011;4757;59.334;18.034;2022-10-10T00:17:55;3.07;;;1.80;;
9436;SDS011;4757;59.334;18.034;2022-10-10T00:20:23;6.10;;;1.37;;
9436;SDS011;4757;59.334;18.034;2022-10-10T00:22:51;3.17;;;1.30;;
9436;SDS011;4757;59.334;18.034;2022-10-10T00:25:18;2.77;;;1.17;;
9436;SDS011;4757;59.334;18.034;2022-10-10T00:27:46;7.73;;;1.40;;
9436;SDS011;4757;59.334;18.034;2022-10-10T00:30:16;2.67;;;1.27;;
9436;SDS011;4757;59.334;18.034;2022-10-10T00:32:48;2.07;;;1.33;;
9436;SDS011;4757;59.334;18.034;2022-10-10T00:35:17;4.43;;;1.40;;
9436;SDS011;4757;59.334;18.034;2022-10-10T00:37:49;4.47;;;1.57;;
9436;SDS011;4757;59.334;18.034;2022-10-10T00:40:24;4.43;;;1.40;;
9436;SDS011;4757;59.334;18.034;2022-10-10T00:42:57;6.30;;;1.83;;
9436;SDS011;4757;59.334;18.034;2022-10-10T00:45:40;10.47;;;2.20;;
9436;SDS011;4757;59.334;18.034;2022-10-10T00:50:47;3.27;;;1.40;;
9436;SDS011;4757;59.334;18.034;2022-10-10T00:53:14;5.47;;;1.20;;
9436;SDS011;4757;59.334;18.034;2022-10-10T00:55:45;2.83;;;1.37;;
9436;SDS011;4757;59.334;18.034;2022-10-10T00:58:13;2.87;;;1.20;;
9436;SDS011;4757;59.334;18.034;2022-10-10T01:00:42;4.03;;;1.30;;
9436;SDS011;4757;59.334;18.034;2022-10-10T01:03:09;3.20;;;1.50;;
9436;SDS011;4757;59.334;18.034;2022-10-10T01:05:39;5.67;;;1.50;;
9436;SDS011;4757;59.334;18.034;2022-10-10T01:08:07;4.97;;;1.37;;
9436;SDS011;4757;59.334;18.034;2022-10-10T01:10:40;3.30;;;1.23;;
9436;SDS011;4757;59.334;18.034;2022-10-10T01:24:43;4.50;;;1.50;;
9436;SDS011;4757;59.334;18.034;2022-10-10T01:32:45;7.80;;;1.60;;
9436;SDS011;4757;59.334;18.034;2022-10-10T01:43:36;3.77;;;1.33;;
9436;SDS011;4757;59.334;18.034;2022-10-10T01:46:10;3.77;;;1.30;;
9436;SDS011;4757;59.334;18.034;2022-10-10T01:48:39;4.00;;;1.50;;
9436;SDS011;4757;59.334;18.034;2022-10-10T01:58:57;5.87;;;1.33;;
9436;SDS011;4757;59.334;18.034;2022-10-10T02:02:02;4.30;;;1.37;;
9436;SDS011;4757;59.334;18.034;2022-10-10T02:04:38;2.30;;;1.03;;
9436;SDS011;4757;59.334;18.034;2022-10-10T02:07:15;2.73;;;1.40;;
9436;SDS011;4757;59.334;18.034;2022-10-10T02:09:47;7.43;;;1.40;;
9436;SDS011;4757;59.334;18.034;2022-10-10T02:12:17;4.90;;;1.33;;
9436;SDS011;4757;59.334;18.034;2022-10-10T02:14:49;3.67;;;1.20;;
9436;SDS011;4757;59.334;18.034;2022-10-10T02:17:19;5.00;;;1.30;;
9436;SDS011;4757;59.334;18.034;2022-10-10T02:19:53;6.37;;;1.10;;
9436;SDS011;4757;59.334;18.034;2022-10-10T02:22:23;2.90;;;1.60;;
9436;SDS011;4757;59.334;18.034;2022-10-10T02:24:52;3.43;;;1.30;;
9436;SDS011;4757;59.334;18.034;2022-10-10T02:27:20;4.73;;;2.00;;
9436;SDS011;4757;59.334;18.034;2022-10-10T02:29:49;3.83;;;1.20;;
9436;SDS011;4757;59.334;18.034;2022-10-10T02:32:28;2.67;;;1.40;;
9436;SDS011;4757;59.334;18.034;2022-10-10T02:35:05;4.07;;;1.30;;
9436;SDS011;4757;59.334;18.034;2022-10-10T02:37:35;3.57;;;1.30;;
9436;SDS011;4757;59.334;18.034;2022-10-10T02:40:05;4.23;;;1.63;;
9436;SDS011;4757;59.334;18.034;2022-10-10T02:42:34;4.00;;;1.30;;
9436;SDS011;4757;59.334;18.034;2022-10-10T02:45:03;3.13;;;1.23;;
9436;SDS011;4757;59.334;18.034;2022-10-10T02:47:31;3.30;;;1.40;;
9436;SDS011;4757;59.334;18.034;2022-10-10T02:49:58;3.97;;;1.40;;
9436;SDS011;4757;59.334;18.034;2022-10-10T02:52:25;6.60;;;2.10;;
9436;SDS011;4757;59.334;18.034;2022-10-10T02:54:52;4.20;;;1.30;;
9436;SDS011;4757;59.334;18.034;2022-10-10T02:57:19;4.10;;;2.13;;
9436;SDS011;4757;59.334;18.034;2022-10-10T02:59:46;1.60;;;1.10;;
9436;SDS011;4757;59.334;18.034;2022-10-10T03:02:13;6.50;;;1.37;;
9436;SDS011;4757;59.334;18.034;2022-10-10T03:04:40;5.57;;;1.47;;
9436;SDS011;4757;59.334;18.034;2022-10-10T03:07:07;7.33;;;1.50;;
9436;SDS011;4757;59.334;18.034;2022-10-10T03:09:34;4.23;;;1.73;;
9436;SDS011;4757;59.334;18.034;2022-10-10T03:12:01;2.27;;;1.13;;
9436;SDS011;4757;59.334;18.034;2022-10-10T03:14:29;4.30;;;1.53;;
9436;SDS011;4757;59.334;18.034;2022-10-10T03:16:55;5.73;;;1.87;;
9436;SDS011;4757;59.334;18.034;2022-10-10T03:19:23;5.67;;;1.57;;
9436;SDS011;4757;59.334;18.034;2022-10-10T03:21:50;6.13;;;1.27;;
9436;SDS011;4757;59.334;18.034;2022-10-10T03:24:17;6.03;;;1.60;;
9436;SDS011;4757;59.334;18.034;2022-10-10T03:26:44;8.43;;;2.63;;
9436;SDS011;4757;59.334;18.034;2022-10-10T03:29:11;4.33;;;2.13;;
9436;SDS011;4757;59.334;18.034;2022-10-10T03:31:38;4.80;;;1.60;;
9436;SDS011;4757;59.334;18.034;2022-10-10T03:34:05;5.30;;;1.70;;
9436;SDS011;4757;59.334;18.034;2022-10-10T03:36:33;5.37;;;1.30;;
9436;SDS011;4757;59.334;18.034;2022-10-10T03:39:00;4.80;;;1.70;;
9436;SDS011;4757;59.334;18.034;2022-10-10T03:41:27;3.67;;;1.30;;
9436;SDS011;4757;59.334;18.034;2022-10-10T03:43:55;6.83;;;1.93;;
9436;SDS011;4757;59.334;18.034;2022-10-10T03:46:22;5.50;;;1.70;;
9436;SDS011;4757;59.334;18.034;2022-10-10T03:48:50;6.97;;;1.47;;
9436;SDS011;4757;59.334;18.034;2022-10-10T03:51:17;3.47;;;1.33;;
9436;SDS011;4757;59.334;18.034;2022-10-10T03:53:44;5.10;;;1.50;;
9436;SDS011;4757;59.334;18.034;2022-10-10T03:56:11;4.40;;;1.30;;
9436;SDS011;4757;59.334;18.034;2022-10-10T03:58:39;2.90;;;1.77;;
9436;SDS011;4757;59.334;18.034;2022-10-10T04:01:06;2.80;;;1.47;;
9436;SDS011;4757;59.334;18.034;2022-10-10T04:03:33;4.57;;;2.00;;
9436;SDS011;4757;59.334;18.034;2022-10-10T04:06:01;4.00;;;1.60;;
9436;SDS011;4757;59.334;18.034;2022-10-10T04:08:29;2.70;;;1.20;;
9436;SDS011;4757;59.334;18.034;2022-10-10T04:10:56;7.23;;;1.80;;
9436;SDS011;4757;59.334;18.034;2022-10-10T04:13:23;5.30;;;1.57;;
9436;SDS011;4757;59.334;18.034;2022-10-10T04:15:54;3.33;;;1.50;;
9436;SDS011;4757;59.334;18.034;2022-10-10T04:18:22;7.77;;;1.93;;
9436;SDS011;4757;59.334;18.034;2022-10-10T04:20:50;3.23;;;1.60;;
9436;SDS011;4757;59.334;18.034;2022-10-10T04:23:17;5.50;;;1.67;;
9436;SDS011;4757;59.334;18.034;2022-10-10T04:25:45;3.90;;;1.33;;
9436;SDS011;4757;59.334;18.034;2022-10-10T04:28:14;3.83;;;1.80;;
9436;SDS011;4757;59.334;18.034;2022-10-10T04:30:41;4.50;;;1.47;;
9436;SDS011;4757;59.334;18.034;2022-10-10T04:33:09;5.50;;;1.47;;
9436;SDS011;4757;59.334;18.034;2022-10-10T04:35:37;5.83;;;1.47;;
9436;SDS011;4757;59.334;18.034;2022-10-10T04:38:05;4.23;;;1.60;;
9436;SDS011;4757;59.334;18.034;2022-10-10T04:40:32;4.93;;;1.50;;
9436;SDS011;4757;59.334;18.034;2022-10-10T04:43:03;3.47;;;1.57;;
9436;SDS011;4757;59.334;18.034;2022-10-10T04:45:30;5.67;;;1.60;;
9436;SDS011;4757;59.334;18.034;2022-10-10T04:48:02;7.27;;;2.73;;
9436;SDS011;4757;59.334;18.034;2022-10-10T04:50:30;5.07;;;2.17;;
9436;SDS011;4757;59.334;18.034;2022-10-10T04:52:57;4.80;;;2.00;;
9436;SDS011;4757;59.334;18.034;2022-10-10T04:55:24;3.33;;;1.83;;
9436;SDS011;4757;59.334;18.034;2022-10-10T04:57:52;7.37;;;1.90;;
9436;SDS011;4757;59.334;18.034;2022-10-10T05:00:19;7.27;;;1.70;;
9436;SDS011;4757;59.334;18.034;2022-10-10T05:02:46;4.60;;;2.03;;
9436;SDS011;4757;59.334;18.034;2022-10-10T05:05:14;10.10;;;1.90;;
9436;SDS011;4757;59.334;18.034;2022-10-10T05:07:41;3.73;;;1.60;;
9436;SDS011;4757;59.334;18.034;2022-10-10T05:10:09;6.27;;;1.50;;
9436;SDS011;4757;59.334;18.034;2022-10-10T05:12:36;7.50;;;2.37;;
9436;SDS011;4757;59.334;18.034;2022-10-10T05:15:04;2.67;;;1.60;;
9436;SDS011;4757;59.334;18.034;2022-10-10T05:17:32;5.10;;;1.50;;
9436;SDS011;4757;59.334;18.034;2022-10-10T05:19:59;6.07;;;1.90;;
9436;SDS011;4757;59.334;18.034;2022-10-10T05:22:26;6.43;;;2.00;;
9436;SDS011;4757;59.334;18.034;2022-10-10T05:24:54;8.77;;;1.90;;
9436;SDS011;4757;59.334;18.034;2022-10-10T05:27:21;5.90;;;1.83;;
9436;SDS011;4757;59.334;18.034;2022-10-10T05:29:48;6.43;;;2.17;;
9436;SDS011;4757;59.334;18.034;2022-10-10T05:32:19;5.27;;;1.97;;
9436;SDS011;4757;59.334;18.034;2022-10-10T05:34:46;5.77;;;2.03;;
9436;SDS011;4757;59.334;18.034;2022-10-10T05:37:14;2.93;;;1.50;;
9436;SDS011;4757;59.334;18.034;2022-10-10T05:39:41;6.43;;;2.03;;
9436;SDS011;4757;59.334;18.034;2022-10-10T05:42:08;3.20;;;1.63;;
9436;SDS011;4757;59.334;18.034;2022-10-10T05:44:35;6.43;;;1.93;;
9436;SDS011;4757;59.334;18.034;2022-10-10T05:47:02;3.50;;;1.97;;
9436;SDS011;4757;59.334;18.034;2022-10-10T05:49:29;8.43;;;2.20;;
9436;SDS011;4757;59.334;18.034;2022-10-10T05:51:56;6.80;;;1.70;;
9436;SDS011;4757;59.334;18.034;2022-10-10T05:54:25;3.80;;;1.57;;
9436;SDS011;4757;59.334;18.034;2022-10-10T05:56:53;4.43;;;2.20;;
9436;SDS011;4757;59.334;18.034;2022-10-10T05:59:20;3.10;;;1.77;;
9436;SDS011;4757;59.334;18.034;2022-10-10T06:01:47;3.83;;;1.60;;
9436;SDS011;4757;59.334;18.034;2022-10-10T06:04:15;4.50;;;1.67;;
9436;SDS011;4757;59.334;18.034;2022-10-10T06:06:43;6.40;;;2.13;;
9436;SDS011;4757;59.334;18.034;2022-10-10T06:09:10;5.53;;;1.90;;
9436;SDS011;4757;59.334;18.034;2022-10-10T06:11:37;4.20;;;2.00;;
9436;SDS011;4757;59.334;18.034;2022-10-10T06:14:05;6.23;;;2.20;;
9436;SDS011;4757;59.334;18.034;2022-10-10T06:16:34;6.17;;;2.07;;
9436;SDS011;4757;59.334;18.034;2022-10-10T06:19:03;6.90;;;2.00;;
9436;SDS011;4757;59.334;18.034;2022-10-10T06:21:30;4.50;;;2.20;;
9436;SDS011;4757;59.334;18.034;2022-10-10T06:23:57;5.20;;;2.13;;
9436;SDS011;4757;59.334;18.034;2022-10-10T06:26:24;5.40;;;2.33;;
9436;SDS011;4757;59.334;18.034;2022-10-10T06:28:52;7.10;;;2.40;;
9436;SDS011;4757;59.334;18.034;2022-10-10T06:31:19;4.00;;;2.07;;
9436;SDS011;4757;59.334;18.034;2022-10-10T06:33:46;6.23;;;1.93;;
9436;SDS011;4757;59.334;18.034;2022-10-10T06:36:14;5.13;;;1.80;;
9436;SDS011;4757;59.334;18.034;2022-10-10T06:38:42;8.23;;;1.97;;
9436;SDS011;4757;59.334;18.034;2022-10-10T06:41:11;6.03;;;2.10;;
9436;SDS011;4757;59.334;18.034;2022-10-10T06:43:38;5.63;;;1.80;;
9436;SDS011;4757;59.334;18.034;2022-10-10T06:46:06;7.00;;;2.23;;
9436;SDS011;4757;59.334;18.034;2022-10-10T06:48:35;5.63;;;1.53;;
9436;SDS011;4757;59.334;18.034;2022-10-10T06:51:06;3.73;;;2.17;;
9436;SDS011;4757;59.334;18.034;2022-10-10T06:53:34;5.23;;;1.50;;
9436;SDS011;4757;59.334;18.034;2022-10-10T06:56:02;5.93;;;2.17;;
9436;SDS011;4757;59.334;18.034;2022-10-10T06:58:29;6.37;;;2.20;;
9436;SDS011;4757;59.334;18.034;2022-10-10T07:01:02;5.63;;;2.17;;
9436;SDS011;4757;59.334;18.034;2022-10-10T07:03:32;4.30;;;2.23;;
9436;SDS011;4757;59.334;18.034;2022-10-10T07:06:00;3.93;;;1.63;;
9436;SDS011;4757;59.334;18.034;2022-10-10T07:08:28;6.80;;;2.10;;
9436;SDS011;4757;59.334;18.034;2022-10-10T07:10:56;5.20;;;1.97;;
9436;SDS011;4757;59.334;18.034;2022-10-10T07:13:22;5.77;;;2.00;;
9436;SDS011;4757;59.334;18.034;2022-10-10T07:15:49;4.40;;;1.63;;
9436;SDS011;4757;59.334;18.034;2022-10-10T07:18:17;5.57;;;1.90;;
9436;SDS011;4757;59.334;18.034;2022-10-10T07:20:44;3.43;;;1.70;;
9436;SDS011;4757;59.334;18.034;2022-10-10T07:23:12;6.53;;;1.70;;
9436;SDS011;4757;59.334;18.034;2022-10-10T07:25:40;3.70;;;1.70;;
9436;SDS011;4757;59.334;18.034;2022-10-10T07:28:08;4.83;;;1.63;;
9436;SDS011;4757;59.334;18.034;2022-10-10T07:30:39;5.37;;;1.63;;
9436;SDS011;4757;59.334;18.034;2022-10-10T07:33:12;3.07;;;1.63;;
9436;SDS011;4757;59.334;18.034;2022-10-10T07:35:40;4.30;;;1.43;;
9436;SDS011;4757;59.334;18.034;2022-10-10T07:38:09;7.50;;;2.03;;
9436;SDS011;4757;59.334;18.034;2022-10-10T07:40:40;8.50;;;1.90;;
9436;SDS011;4757;59.334;18.034;2022-10-10T07:43:07;4.40;;;1.77;;
9436;SDS011;4757;59.334;18.034;2022-10-10T07:45:34;2.70;;;1.83;;
9436;SDS011;4757;59.334;18.034;2022-10-10T07:48:02;4.17;;;1.80;;
9436;SDS011;4757;59.334;18.034;2022-10-10T07:50:30;4.23;;;1.80;;
9436;SDS011;4757;59.334;18.034;2022-10-10T07:52:57;3.97;;;1.90;;
9436;SDS011;4757;59.334;18.034;2022-10-10T07:55:25;7.27;;;1.90;;
9436;SDS011;4757;59.334;18.034;2022-10-10T07:57:52;4.93;;;1.87;;
9436;SDS011;4757;59.334;18.034;2022-10-10T08:00:20;7.87;;;1.70;;
9436;SDS011;4757;59.334;18.034;2022-10-10T08:02:48;2.50;;;1.50;;
9436;SDS011;4757;59.334;18.034;2022-10-10T08:05:17;7.93;;;2.17;;
9436;SDS011;4757;59.334;18.034;2022-10-10T08:07:44;4.60;;;1.50;;
9436;SDS011;4757;59.334;18.034;2022-10-10T08:10:11;3.53;;;1.50;;
9436;SDS011;4757;59.334;18.034;2022-10-10T08:12:39;3.33;;;1.60;;
9436;SDS011;4757;59.334;18.034;2022-10-10T08:15:06;4.47;;;1.80;;
9436;SDS011;4757;59.334;18.034;2022-10-10T08:17:33;5.07;;;1.93;;
9436;SDS011;4757;59.334;18.034;2022-10-10T08:20:00;4.33;;;1.60;;
9436;SDS011;4757;59.334;18.034;2022-10-10T08:22:28;2.73;;;1.73;;
9436;SDS011;4757;59.334;18.034;2022-10-10T08:24:55;8.13;;;2.00;;
9436;SDS011;4757;59.334;18.034;2022-10-10T08:27:22;3.27;;;1.93;;
9436;SDS011;4757;59.334;18.034;2022-10-10T08:29:51;5.03;;;1.50;;
9436;SDS011;4757;59.334;18.034;2022-10-10T08:32:19;5.27;;;1.53;;
9436;SDS011;4757;59.334;18.034;2022-10-10T08:34:46;3.20;;;1.47;;
9436;SDS011;4757;59.334;18.034;2022-10-10T08:37:13;3.93;;;1.80;;
9436;SDS011;4757;59.334;18.034;2022-10-10T08:39:40;1.80;;;1.37;;
9436;SDS011;4757;59.334;18.034;2022-10-10T08:42:08;1.37;;;1.07;;
9436;SDS011;4757;59.334;18.034;2022-10-10T08:44:44;3.33;;;1.30;;
9436;SDS011;4757;59.334;18.034;2022-10-10T08:47:19;4.70;;;1.50;;
9436;SDS011;4757;59.334;18.034;2022-10-10T08:49:54;3.37;;;1.27;;
9436;SDS011;4757;59.334;18.034;2022-10-10T08:52:30;2.97;;;1.77;;
9436;SDS011;4757;59.334;18.034;2022-10-10T08:55:14;5.70;;;1.97;;
9436;SDS011;4757;59.334;18.034;2022-10-10T08:57:47;2.10;;;1.33;;
9436;SDS011;4757;59.334;18.034;2022-10-10T09:00:21;4.93;;;1.70;;
9436;SDS011;4757;59.334;18.034;2022-10-10T09:02:51;2.57;;;1.80;;
9436;SDS011;4757;59.334;18.034;2022-10-10T09:22:59;6.63;;;2.60;;
9436;SDS011;4757;59.334;18.034;2022-10-10T09:26:12;3.13;;;1.57;;
9436;SDS011;4757;59.334;18.034;2022-10-10T09:28:53;3.20;;;1.40;;
9436;SDS011;4757;59.334;18.034;2022-10-10T09:31:39;4.93;;;1.83;;
9436;SDS011;4757;59.334;18.034;2022-10-10T09:34:14;3.80;;;1.97;;
9436;SDS011;4757;59.334;18.034;2022-10-10T09:36:51;3.00;;;1.43;;
9436;SDS011;4757;59.334;18.034;2022-10-10T09:42:08;3.77;;;1.80;;
9436;SDS011;4757;59.334;18.034;2022-10-10T09:44:37;6.90;;;2.30;;
9436;SDS011;4757;59.334;18.034;2022-10-10T09:47:05;5.87;;;2.27;;
9436;SDS011;4757;59.334;18.034;2022-10-10T09:49:35;4.23;;;2.13;;
9436;SDS011;4757;59.334;18.034;2022-10-10T09:52:12;9.50;;;2.43;;
9436;SDS011;4757;59.334;18.034;2022-10-10T09:54:54;2.77;;;1.40;;
9436;SDS011;4757;59.334;18.034;2022-10-10T09:57:30;4.43;;;1.70;;
9436;SDS011;4757;59.334;18.034;2022-10-10T10:03:04;5.97;;;2.10;;
9436;SDS011;4757;59.334;18.034;2022-10-10T10:05:34;6.43;;;2.07;;
9436;SDS011;4757;59.334;18.034;2022-10-10T10:08:01;6.27;;;2.33;;
9436;SDS011;4757;59.334;18.034;2022-10-10T10:10:28;5.90;;;1.70;;
9436;SDS011;4757;59.334;18.034;2022-10-10T10:13:10;4.37;;;1.83;;
9436;SDS011;4757;59.334;18.034;2022-10-10T10:15:39;5.53;;;1.57;;
9436;SDS011;4757;59.334;18.034;2022-10-10T10:21:07;3.77;;;1.60;;
9436;SDS011;4757;59.334;18.034;2022-10-10T10:23:32;6.47;;;1.90;;
9436;SDS011;4757;59.334;18.034;2022-10-10T10:26:16;4.40;;;1.70;;
9436;SDS011;4757;59.334;18.034;2022-10-10T10:28:53;3.27;;;1.70;;
9436;SDS011;4757;59.334;18.034;2022-10-10T10:36:55;5.60;;;1.70;;
9436;SDS011;4757;59.334;18.034;2022-10-10T10:51:14;3.63;;;1.60;;
9436;SDS011;4757;59.334;18.034;2022-10-10T10:54:11;5.30;;;1.37;;
9436;SDS011;4757;59.334;18.034;2022-10-10T10:57:10;4.97;;;1.33;;
9436;SDS011;4757;59.334;18.034;2022-10-10T11:00:15;5.37;;;1.83;;
9436;SDS011;4757;59.334;18.034;2022-10-10T11:12:46;7.60;;;2.00;;
9436;SDS011;4757;59.334;18.034;2022-10-10T11:15:31;3.37;;;1.80;;
9436;SDS011;4757;59.334;18.034;2022-10-10T11:18:26;4.80;;;1.50;;
9436;SDS011;4757;59.334;18.034;2022-10-10T11:21:02;3.43;;;1.40;;
9436;SDS011;4757;59.334;18.034;2022-10-10T11:23:41;7.00;;;1.80;;
9436;SDS011;4757;59.334;18.034;2022-10-10T11:26:24;4.53;;;1.40;;
9436;SDS011;4757;59.334;18.034;2022-10-10T11:29:10;2.97;;;1.33;;
9436;SDS011;4757;59.334;18.034;2022-10-10T11:31:56;4.83;;;1.30;;
9436;SDS011;4757;59.334;18.034;2022-10-10T11:34:44;3.30;;;1.70;;
9436;SDS011;4757;59.334;18.034;2022-10-10T11:37:16;4.03;;;1.20;;
9436;SDS011;4757;59.334;18.034;2022-10-10T11:39:55;5.40;;;1.60;;
9436;SDS011;4757;59.334;18.034;2022-10-10T11:44:56;5.57;;;2.40;;
9436;SDS011;4757;59.334;18.034;2022-10-10T11:50:09;6.57;;;2.10;;
9436;SDS011;4757;59.334;18.034;2022-10-10T11:58:36;3.43;;;1.73;;
9436;SDS011;4757;59.334;18.034;2022-10-10T12:03:46;2.93;;;1.80;;
9436;SDS011;4757;59.334;18.034;2022-10-10T12:06:22;6.83;;;2.10;;
9436;SDS011;4757;59.334;18.034;2022-10-10T12:12:27;6.87;;;1.50;;
9436;SDS011;4757;59.334;18.034;2022-10-10T12:15:00;2.93;;;1.47;;
9436;SDS011;4757;59.334;18.034;2022-10-10T12:17:35;5.20;;;2.10;;
9436;SDS011;4757;59.334;18.034;2022-10-10T12:20:52;4.90;;;1.80;;
9436;SDS011;4757;59.334;18.034;2022-10-10T12:25:53;4.07;;;1.90;;
9436;SDS011;4757;59.334;18.034;2022-10-10T12:36:40;4.47;;;1.70;;
9436;SDS011;4757;59.334;18.034;2022-10-10T12:44:55;2.87;;;2.23;;
9436;SDS011;4757;59.334;18.034;2022-10-10T12:49:52;3.73;;;2.10;;
9436;SDS011;4757;59.334;18.034;2022-10-10T12:52:24;4.10;;;2.07;;
9436;SDS011;4757;59.334;18.034;2022-10-10T12:55:24;3.67;;;1.40;;
9436;SDS011;4757;59.334;18.034;2022-10-10T12:57:57;4.83;;;2.10;;
9436;SDS011;4757;59.334;18.034;2022-10-10T13:00:36;4.77;;;2.00;;
9436;SDS011;4757;59.334;18.034;2022-10-10T13:03:12;4.80;;;1.50;;
9436;SDS011;4757;59.334;18.034;2022-10-10T13:05:42;3.93;;;1.90;;
9436;SDS011;4757;59.334;18.034;2022-10-10T13:11:48;3.93;;;1.57;;
9436;SDS011;4757;59.334;18.034;2022-10-10T13:21:35;2.30;;;1.30;;
9436;SDS011;4757;59.334;18.034;2022-10-10T13:24:57;11.00;;;1.73;;
9436;SDS011;4757;59.334;18.034;2022-10-10T13:28:04;2.97;;;2.07;;
9436;SDS011;4757;59.334;18.034;2022-10-10T13:35:19;4.70;;;1.80;;
9436;SDS011;4757;59.334;18.034;2022-10-10T16:50:13;4.20;;;2.23;;
9436;SDS011;4757;59.334;18.034;2022-10-10T16:52:55;9.03;;;2.40;;
9436;SDS011;4757;59.334;18.034;2022-10-10T16:55:41;6.13;;;3.07;;
9436;SDS011;4757;59.334;18.034;2022-10-10T16:58:49;4.03;;;2.50;;
9436;SDS011;4757;59.334;18.034;2022-10-10T17:01:45;3.93;;;1.80;;
9436;SDS011;4757;59.334;18.034;2022-10-10T17:04:42;4.97;;;2.47;;
9436;SDS011;4757;59.334;18.034;2022-10-10T17:07:26;4.37;;;1.67;;
9436;SDS011;4757;59.334;18.034;2022-10-10T17:13:23;3.50;;;1.60;;
9436;SDS011;4757;59.334;18.034;2022-10-10T17:20:02;4.37;;;2.00;;
9436;SDS011;4757;59.334;18.034;2022-10-10T17:23:29;6.50;;;2.10;;
9436;SDS011;4757;59.334;18.034;2022-10-10T17:25:56;5.30;;;2.23;;
9436;SDS011;4757;59.334;18.034;2022-10-10T17:28:26;8.20;;;2.57;;
9436;SDS011;4757;59.334;18.034;2022-10-10T17:30:57;7.10;;;2.13;;
9436;SDS011;4757;59.334;18.034;2022-10-10T17:33:44;6.17;;;2.10;;
9436;SDS011;4757;59.334;18.034;2022-10-10T17:36:22;3.37;;;2.20;;
9436;SDS011;4757;59.334;18.034;2022-10-10T17:39:52;4.47;;;2.20;;
9436;SDS011;4757;59.334;18.034;2022-10-10T17:42:52;6.20;;;2.83;;
9436;SDS011;4757;59.334;18.034;2022-10-10T17:46:01;4.30;;;2.23;;
9436;SDS011;4757;59.334;18.034;2022-10-10T17:49:12;7.50;;;4.77;;
9436;SDS011;4757;59.334;18.034;2022-10-10T17:52:06;7.43;;;2.57;;
9436;SDS011;4757;59.334;18.034;2022-10-10T17:55:12;2.77;;;1.80;;
9436;SDS011;4757;59.334;18.034;2022-10-10T17:57:54;4.70;;;2.53;;
9436;SDS011;4757;59.334;18.034;2022-10-10T18:01:05;4.83;;;2.30;;
9436;SDS011;4757;59.334;18.034;2022-10-10T18:03:47;4.90;;;2.67;;
9436;SDS011;4757;59.334;18.034;2022-10-10T18:06:18;5.60;;;2.20;;
9436;SDS011;4757;59.334;18.034;2022-10-10T18:09:00;3.87;;;2.47;;
9436;SDS011;4757;59.334;18.034;2022-10-10T18:11:31;4.57;;;2.30;;
9436;SDS011;4757;59.334;18.034;2022-10-10T18:17:36;3.10;;;2.10;;
9436;SDS011;4757;59.334;18.034;2022-10-10T18:20:12;4.70;;;2.37;;
9436;SDS011;4757;59.334;18.034;2022-10-10T18:23:04;5.37;;;2.73;;
9436;SDS011;4757;59.334;18.034;2022-10-10T18:26:18;4.20;;;3.07;;
9436;SDS011;4757;59.334;18.034;2022-10-10T18:29:13;4.47;;;2.80;;
9436;SDS011;4757;59.334;18.034;2022-10-10T18:31:52;4.53;;;2.60;;
9436;SDS011;4757;59.334;18.034;2022-10-10T18:37:52;7.10;;;2.10;;
9436;SDS011;4757;59.334;18.034;2022-10-10T18:41:03;4.70;;;2.20;;
9436;SDS011;4757;59.334;18.034;2022-10-10T18:44:14;4.50;;;2.50;;
9436;SDS011;4757;59.334;18.034;2022-10-10T18:50:29;6.73;;;2.93;;
9436;SDS011;4757;59.334;18.034;2022-10-10T18:53:27;4.57;;;2.30;;
9436;SDS011;4757;59.334;18.034;2022-10-10T18:55:59;4.63;;;2.80;;
9436;SDS011;4757;59.334;18.034;2022-10-10T18:58:44;6.63;;;3.20;;
9436;SDS011;4757;59.334;18.034;2022-10-10T19:01:29;12.97;;;3.43;;
9436;SDS011;4757;59.334;18.034;2022-10-10T19:04:48;5.33;;;2.90;;
9436;SDS011;4757;59.334;18.034;2022-10-10T19:07:39;5.73;;;2.83;;
9436;SDS011;4757;59.334;18.034;2022-10-10T19:10:42;4.50;;;3.20;;
9436;SDS011;4757;59.334;18.034;2022-10-10T19:13:35;4.87;;;3.50;;
9436;SDS011;4757;59.334;18.034;2022-10-10T19:16:27;9.10;;;4.80;;
9436;SDS011;4757;59.334;18.034;2022-10-10T19:19:04;6.47;;;3.50;;
9436;SDS011;4757;59.334;18.034;2022-10-10T19:21:54;5.13;;;3.50;;
9436;SDS011;4757;59.334;18.034;2022-10-10T19:25:05;7.73;;;4.33;;
9436;SDS011;4757;59.334;18.034;2022-10-10T19:28:03;6.50;;;3.50;;
9436;SDS011;4757;59.334;18.034;2022-10-10T19:31:01;8.83;;;4.00;;
9436;SDS011;4757;59.334;18.034;2022-10-10T19:33:32;5.30;;;4.07;;
9436;SDS011;4757;59.334;18.034;2022-10-10T19:36:16;6.50;;;4.07;;
9436;SDS011;4757;59.334;18.034;2022-10-10T19:42:18;6.67;;;4.53;;
9436;SDS011;4757;59.334;18.034;2022-10-10T19:45:11;10.10;;;4.37;;
9436;SDS011;4757;59.334;18.034;2022-10-10T19:47:59;7.73;;;4.90;;
9436;SDS011;4757;59.334;18.034;2022-10-10T19:51:24;11.57;;;4.63;;
9436;SDS011;4757;59.334;18.034;2022-10-10T19:54:03;7.13;;;3.70;;
9436;SDS011;4757;59.334;18.034;2022-10-10T19:56:47;8.53;;;3.77;;
9436;SDS011;4757;59.334;18.034;2022-10-10T20:00:08;5.93;;;4.43;;
9436;SDS011;4757;59.334;18.034;2022-10-10T20:02:36;6.47;;;4.37;;
9436;SDS011;4757;59.334;18.034;2022-10-10T20:05:03;8.03;;;5.27;;
9436;SDS011;4757;59.334;18.034;2022-10-10T20:07:31;7.03;;;3.80;;
9436;SDS011;4757;59.334;18.034;2022-10-10T20:09:58;6.97;;;4.23;;
9436;SDS011;4757;59.334;18.034;2022-10-10T20:12:24;7.63;;;4.23;;
9436;SDS011;4757;59.334;18.034;2022-10-10T20:14:51;6.50;;;4.20;;
9436;SDS011;4757;59.334;18.034;2022-10-10T20:17:18;5.63;;;3.97;;
9436;SDS011;4757;59.334;18.034;2022-10-10T20:19:45;7.33;;;5.23;;
9436;SDS011;4757;59.334;18.034;2022-10-10T20:22:13;6.13;;;4.10;;
9436;SDS011;4757;59.334;18.034;2022-10-10T20:24:40;6.37;;;3.97;;
9436;SDS011;4757;59.334;18.034;2022-10-10T20:27:07;7.20;;;4.23;;
9436;SDS011;4757;59.334;18.034;2022-10-10T20:29:34;6.90;;;3.90;;
9436;SDS011;4757;59.334;18.034;2022-10-10T20:32:01;5.07;;;4.07;;
9436;SDS011;4757;59.334;18.034;2022-10-10T20:34:28;4.53;;;3.30;;
9436;SDS011;4757;59.334;18.034;2022-10-10T20:36:55;5.77;;;3.90;;
9436;SDS011;4757;59.334;18.034;2022-10-10T20:39:22;8.87;;;4.47;;
9436;SDS011;4757;59.334;18.034;2022-10-10T20:41:49;9.30;;;4.67;;
9436;SDS011;4757;59.334;18.034;2022-10-10T20:44:17;8.43;;;4.07;;
9436;SDS011;4757;59.334;18.034;2022-10-10T20:46:44;10.17;;;4.30;;
9436;SDS011;4757;59.334;18.034;2022-10-10T20:49:13;6.70;;;3.63;;
9436;SDS011;4757;59.334;18.034;2022-10-10T20:51:41;4.00;;;3.50;;
9436;SDS011;4757;59.334;18.034;2022-10-10T20:54:14;7.60;;;4.17;;
9436;SDS011;4757;59.334;18.034;2022-10-10T20:56:42;11.37;;;4.60;;
9436;SDS011;4757;59.334;18.034;2022-10-10T20:59:14;7.33;;;4.37;;
9436;SDS011;4757;59.334;18.034;2022-10-10T21:01:42;6.23;;;4.10;;
9436;SDS011;4757;59.334;18.034;2022-10-10T21:04:11;6.83;;;3.93;;
9436;SDS011;4757;59.334;18.034;2022-10-10T21:06:39;5.77;;;3.70;;
9436;SDS011;4757;59.334;18.034;2022-10-10T21:09:10;5.93;;;4.17;;
9436;SDS011;4757;59.334;18.034;2022-10-10T21:11:39;9.80;;;4.30;;
9436;SDS011;4757;59.334;18.034;2022-10-10T21:14:06;6.60;;;4.10;;
9436;SDS011;4757;59.334;18.034;2022-10-10T21:16:37;6.63;;;3.97;;
9436;SDS011;4757;59.334;18.034;2022-10-10T21:19:07;5.20;;;4.20;;
9436;SDS011;4757;59.334;18.034;2022-10-10T21:21:35;8.23;;;3.80;;
9436;SDS011;4757;59.334;18.034;2022-10-10T21:24:04;9.27;;;4.10;;
9436;SDS011;4757;59.334;18.034;2022-10-10T21:26:33;7.00;;;3.90;;
9436;SDS011;4757;59.334;18.034;2022-10-10T21:29:00;7.90;;;4.20;;
9436;SDS011;4757;59.334;18.034;2022-10-10T21:31:31;5.40;;;3.93;;
9436;SDS011;4757;59.334;18.034;2022-10-10T21:34:00;6.23;;;4.13;;
9436;SDS011;4757;59.334;18.034;2022-10-10T21:36:29;5.17;;;3.93;;
9436;SDS011;4757;59.334;18.034;2022-10-10T21:38:56;7.90;;;4.10;;
9436;SDS011;4757;59.334;18.034;2022-10-10T21:41:24;8.83;;;3.90;;